sensor_id;sensor_type;location;lat;lon;timestamp;pressure;altitude;pressure_sealevel;temperature;humidity
6349;BME280;3207;42.648;23.406;2022-11-15T00:01:31;100393.25;;;10.27;99.87
6349;BME280;3207;42.648;23.406;2022-11-15T00:03:58;100395.53;;;10.32;99.85
6349;BME280;3207;42.648;23.406;2022-11-15T00:06:25;100395.53;;;10.32;99.28
6349;BME280;3207;42.648;23.406;2022-11-15T00:08:52;100396.38;;;10.32;98.61
6349;BME280;3207;42.648;23.406;2022-11-15T00:11:18;100398.34;;;10.28;98.58
6349;BME280;3207;42.648;23.406;2022-11-15T00:13:45;100384.00;;;10.21;98.66
6349;BME280;3207;42.648;23.406;2022-11-15T00:16:13;100380.66;;;10.19;98.54
6349;BME280;3207;42.648;23.406;2022-11-15T00:18:40;100385.09;;;10.17;97.76
6349;BME280;3207;42.648;23.406;2022-11-15T00:21:09;100378.59;;;10.10;98.38
6349;BME280;3207;42.648;23.406;2022-11-15T00:23:36;100375.25;;;10.08;98.75
6349;BME280;3207;42.648;23.406;2022-11-15T00:26:04;100375.25;;;10.08;98.17
6349;BME280;3207;42.648;23.406;2022-11-15T00:28:30;100378.59;;;10.10;99.24
6349;BME280;3207;42.648;23.406;2022-11-15T00:31:00;100388.13;;;10.11;99.27
6349;BME280;3207;42.648;23.406;2022-11-15T00:33:29;100372.31;;;10.00;98.52
6349;BME280;3207;42.648;23.406;2022-11-15T00:36:00;100384.03;;;10.07;98.09
6349;BME280;3207;42.648;23.406;2022-11-15T00:38:30;100385.69;;;10.08;98.56
6349;BME280;3207;42.648;23.406;2022-11-15T00:40:57;100376.75;;;10.12;99.12
6349;BME280;3207;42.648;23.406;2022-11-15T00:43:24;100372.16;;;10.16;99.05
6349;BME280;3207;42.648;23.406;2022-11-15T00:45:50;100373.84;;;10.17;98.98
6349;BME280;3207;42.648;23.406;2022-11-15T00:48:17;100370.78;;;10.10;98.86
6349;BME280;3207;42.648;23.406;2022-11-15T00:50:45;100310.28;;;9.77;98.45
6349;BME280;3207;42.648;23.406;2022-11-15T00:53:12;100369.19;;;10.08;98.49
6349;BME280;3207;42.648;23.406;2022-11-15T00:55:39;100364.81;;;10.08;98.58
6349;BME280;3207;42.648;23.406;2022-11-15T00:58:06;100364.09;;;10.06;98.05
6349;BME280;3207;42.648;23.406;2022-11-15T01:00:33;100361.75;;;10.02;98.58
6349;BME280;3207;42.648;23.406;2022-11-15T01:02:59;100369.50;;;10.03;98.67
6349;BME280;3207;42.648;23.406;2022-11-15T01:05:27;100370.25;;;10.05;98.79
6349;BME280;3207;42.648;23.406;2022-11-15T01:07:56;100367.50;;;10.07;98.72
6349;BME280;3207;42.648;23.406;2022-11-15T01:10:23;100359.81;;;10.05;98.45
6349;BME280;3207;42.648;23.406;2022-11-15T01:12:51;100353.66;;;10.06;98.38
6349;BME280;3207;42.648;23.406;2022-11-15T01:15:18;100357.38;;;10.02;98.38
6349;BME280;3207;42.648;23.406;2022-11-15T01:17:45;100349.72;;;9.99;98.72
6349;BME280;3207;42.648;23.406;2022-11-15T01:20:12;100349.53;;;10.02;99.01
6349;BME280;3207;42.648;23.406;2022-11-15T01:22:39;100340.59;;;10.06;98.81
6349;BME280;3207;42.648;23.406;2022-11-15T01:25:07;100334.31;;;10.09;98.75
6349;BME280;3207;42.648;23.406;2022-11-15T01:27:34;100315.91;;;10.10;98.57
6349;BME280;3207;42.648;23.406;2022-11-15T01:30:01;100318.19;;;10.02;98.83
6349;BME280;3207;42.648;23.406;2022-11-15T01:32:27;100309.81;;;9.97;99.50
6349;BME280;3207;42.648;23.406;2022-11-15T01:34:54;100303.75;;;9.97;99.22
6349;BME280;3207;42.648;23.406;2022-11-15T01:37:21;100309.81;;;9.97;99.55
6349;BME280;3207;42.648;23.406;2022-11-15T01:39:48;100298.25;;;10.01;99.08
6349;BME280;3207;42.648;23.406;2022-11-15T01:42:16;100304.13;;;10.05;99.10
6349;BME280;3207;42.648;23.406;2022-11-15T01:44:45;100301.41;;;10.06;98.70
6349;BME280;3207;42.648;23.406;2022-11-15T01:47:15;100311.31;;;10.01;99.32
6349;BME280;3207;42.648;23.406;2022-11-15T01:49:49;100299.09;;;10.02;98.91
6349;BME280;3207;42.648;23.406;2022-11-15T01:52:19;100312.78;;;10.05;98.88
6349;BME280;3207;42.648;23.406;2022-11-15T01:54:49;100316.13;;;10.07;98.85
6349;BME280;3207;42.648;23.406;2022-11-15T01:57:18;100309.03;;;10.09;98.04
6349;BME280;3207;42.648;23.406;2022-11-15T01:59:46;100311.31;;;10.01;98.22
6349;BME280;3207;42.648;23.406;2022-11-15T02:02:13;100316.53;;;10.01;98.33
6349;BME280;3207;42.648;23.406;2022-11-15T02:04:44;100313.72;;;10.04;98.86
6349;BME280;3207;42.648;23.406;2022-11-15T02:07:15;100311.84;;;10.06;98.58
6349;BME280;3207;42.648;23.406;2022-11-15T02:09:43;100310.88;;;10.07;98.72
6349;BME280;3207;42.648;23.406;2022-11-15T02:12:13;100308.19;;;10.09;98.93
6349;BME280;3207;42.648;23.406;2022-11-15T02:14:43;100311.72;;;10.08;97.75
6349;BME280;3207;42.648;23.406;2022-11-15T02:17:23;100298.78;;;10.06;98.12
6349;BME280;3207;42.648;23.406;2022-11-15T02:20:16;100297.31;;;10.02;97.92
6349;BME280;3207;42.648;23.406;2022-11-15T02:23:00;100292.09;;;10.02;98.06
6349;BME280;3207;42.648;23.406;2022-11-15T02:25:37;100282.56;;;10.01;97.43
6349;BME280;3207;42.648;23.406;2022-11-15T02:28:30;100263.31;;;9.89;98.15
6349;BME280;3207;42.648;23.406;2022-11-15T02:31:04;100282.03;;;9.96;98.22
6349;BME280;3207;42.648;23.406;2022-11-15T02:33:42;100281.50;;;9.91;98.36
6349;BME280;3207;42.648;23.406;2022-11-15T02:36:15;100281.50;;;9.91;98.46
6349;BME280;3207;42.648;23.406;2022-11-15T02:38:47;100288.31;;;9.94;98.80
6349;BME280;3207;42.648;23.406;2022-11-15T02:41:24;100276.09;;;9.94;98.18
6349;BME280;3207;42.648;23.406;2022-11-15T02:43:58;100274.41;;;9.93;99.54
6349;BME280;3207;42.648;23.406;2022-11-15T02:46:32;100271.81;;;9.93;99.22
6349;BME280;3207;42.648;23.406;2022-11-15T02:49:18;100277.22;;;9.90;99.66
6349;BME280;3207;42.648;23.406;2022-11-15T02:51:47;100284.03;;;9.93;99.13
6349;BME280;3207;42.648;23.406;2022-11-15T02:54:24;100285.59;;;9.95;99.33
6349;BME280;3207;42.648;23.406;2022-11-15T02:56:53;100264.03;;;9.79;99.35
6349;BME280;3207;42.648;23.406;2022-11-15T02:59:35;100219.94;;;9.62;98.75
6349;BME280;3207;42.648;23.406;2022-11-15T03:02:14;100268.25;;;9.94;99.01
6349;BME280;3207;42.648;23.406;2022-11-15T03:04:49;100268.25;;;9.94;99.07
6349;BME280;3207;42.648;23.406;2022-11-15T03:07:25;100254.88;;;9.99;99.62
6349;BME280;3207;42.648;23.406;2022-11-15T03:10:01;100250.41;;;10.01;99.76
6349;BME280;3207;42.648;23.406;2022-11-15T03:12:39;100251.78;;;10.06;100.00
6349;BME280;3207;42.648;23.406;2022-11-15T03:15:12;100241.94;;;10.10;100.00
6349;BME280;3207;42.648;23.406;2022-11-15T03:17:48;100236.44;;;10.14;99.38
6349;BME280;3207;42.648;23.406;2022-11-15T03:20:19;100246.66;;;10.17;99.20
6349;BME280;3207;42.648;23.406;2022-11-15T03:22:47;100244.72;;;10.21;100.00
6349;BME280;3207;42.648;23.406;2022-11-15T03:25:18;100246.19;;;10.25;100.00
6349;BME280;3207;42.648;23.406;2022-11-15T03:27:48;100245.16;;;10.27;99.43
6349;BME280;3207;42.648;23.406;2022-11-15T03:30:18;100246.59;;;10.32;99.32
6349;BME280;3207;42.648;23.406;2022-11-15T03:32:47;100243.78;;;10.35;99.02
6349;BME280;3207;42.648;23.406;2022-11-15T03:35:19;100245.47;;;10.36;98.64
6349;BME280;3207;42.648;23.406;2022-11-15T03:37:51;100244.53;;;10.37;99.04
6349;BME280;3207;42.648;23.406;2022-11-15T03:40:22;100221.94;;;10.23;98.39
6349;BME280;3207;42.648;23.406;2022-11-15T03:42:57;100242.84;;;10.36;98.68
6349;BME280;3207;42.648;23.406;2022-11-15T03:45:29;100153.16;;;9.84;98.10
6349;BME280;3207;42.648;23.406;2022-11-15T03:48:02;100236.69;;;10.37;98.38
6349;BME280;3207;42.648;23.406;2022-11-15T03:50:31;100234.78;;;10.39;98.03
6349;BME280;3207;42.648;23.406;2022-11-15T03:52:58;100232.06;;;10.40;97.44
6349;BME280;3207;42.648;23.406;2022-11-15T03:55:25;100229.34;;;10.42;97.79
6349;BME280;3207;42.648;23.406;2022-11-15T03:57:54;100232.69;;;10.44;97.51
6349;BME280;3207;42.648;23.406;2022-11-15T04:00:22;100224.88;;;10.44;97.23
6349;BME280;3207;42.648;23.406;2022-11-15T04:02:49;100232.69;;;10.44;96.92
6349;BME280;3207;42.648;23.406;2022-11-15T04:05:17;100241.47;;;10.43;96.55
6349;BME280;3207;42.648;23.406;2022-11-15T04:07:44;100235.50;;;10.41;97.39
6349;BME280;3207;42.648;23.406;2022-11-15T04:10:11;100230.38;;;10.39;96.51
6349;BME280;3207;42.648;23.406;2022-11-15T04:12:41;100205.00;;;10.28;96.91
6349;BME280;3207;42.648;23.406;2022-11-15T04:15:11;100222.56;;;10.39;97.56
6349;BME280;3207;42.648;23.406;2022-11-15T04:17:39;100216.50;;;10.39;96.79
6349;BME280;3207;42.648;23.406;2022-11-15T04:20:10;100215.53;;;10.40;97.30
6349;BME280;3207;42.648;23.406;2022-11-15T04:22:57;100209.81;;;10.35;97.19
6349;BME280;3207;42.648;23.406;2022-11-15T04:25:42;100207.41;;;10.32;96.87
6349;BME280;3207;42.648;23.406;2022-11-15T04:28:10;100179.25;;;10.10;97.17
6349;BME280;3207;42.648;23.406;2022-11-15T04:30:37;100207.47;;;10.17;97.06
6349;BME280;3207;42.648;23.406;2022-11-15T04:33:04;100216.63;;;10.24;97.21
6349;BME280;3207;42.648;23.406;2022-11-15T04:35:31;100205.63;;;10.19;96.90
6349;BME280;3207;42.648;23.406;2022-11-15T04:37:59;100203.56;;;10.24;96.89
6349;BME280;3207;42.648;23.406;2022-11-15T04:40:26;100210.34;;;10.27;97.57
6349;BME280;3207;42.648;23.406;2022-11-15T04:42:52;100204.06;;;10.30;97.78
6349;BME280;3207;42.648;23.406;2022-11-15T04:45:19;100213.56;;;10.31;97.69
6349;BME280;3207;42.648;23.406;2022-11-15T04:47:46;100206.47;;;10.33;97.21
6349;BME280;3207;42.648;23.406;2022-11-15T04:50:14;100203.75;;;10.34;97.14
6349;BME280;3207;42.648;23.406;2022-11-15T04:52:41;100203.66;;;10.36;97.73
6349;BME280;3207;42.648;23.406;2022-11-15T04:55:10;100185.38;;;10.23;97.47
6349;BME280;3207;42.648;23.406;2022-11-15T04:57:37;100194.13;;;10.35;97.02
6349;BME280;3207;42.648;23.406;2022-11-15T05:00:07;100191.53;;;10.35;96.82
6349;BME280;3207;42.648;23.406;2022-11-15T05:02:34;100195.06;;;10.34;97.06
6349;BME280;3207;42.648;23.406;2022-11-15T05:05:18;100190.06;;;10.31;96.72
6349;BME280;3207;42.648;23.406;2022-11-15T05:07:45;100191.84;;;10.30;96.65
6349;BME280;3207;42.648;23.406;2022-11-15T05:10:13;100186.59;;;10.30;97.09
6349;BME280;3207;42.648;23.406;2022-11-15T05:12:40;100179.69;;;10.29;96.31
6349;BME280;3207;42.648;23.406;2022-11-15T05:15:07;100178.88;;;10.28;95.90
6349;BME280;3207;42.648;23.406;2022-11-15T05:17:34;100184.81;;;10.31;95.97
6349;BME280;3207;42.648;23.406;2022-11-15T05:20:01;100184.72;;;10.32;96.55
6349;BME280;3207;42.648;23.406;2022-11-15T05:22:28;100184.53;;;10.35;96.28
6349;BME280;3207;42.648;23.406;2022-11-15T05:24:55;100186.19;;;10.36;96.29
6349;BME280;3207;42.648;23.406;2022-11-15T05:27:23;100184.19;;;10.40;95.84
6349;BME280;3207;42.648;23.406;2022-11-15T05:29:49;100180.63;;;10.41;95.48
6349;BME280;3207;42.648;23.406;2022-11-15T05:32:17;100174.91;;;10.36;95.47
6349;BME280;3207;42.648;23.406;2022-11-15T05:34:44;100180.53;;;10.42;95.03
6349;BME280;3207;42.648;23.406;2022-11-15T05:37:11;100177.81;;;10.44;95.54
6349;BME280;3207;42.648;23.406;2022-11-15T05:39:38;100184.72;;;10.45;95.38
6349;BME280;3207;42.648;23.406;2022-11-15T05:42:08;100188.06;;;10.47;94.60
6349;BME280;3207;42.648;23.406;2022-11-15T05:44:39;100189.75;;;10.48;95.52
6349;BME280;3207;42.648;23.406;2022-11-15T05:47:10;100186.16;;;10.49;94.36
6349;BME280;3207;42.648;23.406;2022-11-15T05:49:39;100191.38;;;10.49;94.52
6349;BME280;3207;42.648;23.406;2022-11-15T05:52:10;100190.44;;;10.50;95.06
6349;BME280;3207;42.648;23.406;2022-11-15T05:54:38;100196.50;;;10.50;95.08
6349;BME280;3207;42.648;23.406;2022-11-15T05:57:05;100087.97;;;9.83;95.30
6349;BME280;3207;42.648;23.406;2022-11-15T05:59:33;100205.00;;;10.54;94.90
6349;BME280;3207;42.648;23.406;2022-11-15T06:02:01;100197.16;;;10.54;94.37
6349;BME280;3207;42.648;23.406;2022-11-15T06:04:28;100199.75;;;10.54;94.53
6349;BME280;3207;42.648;23.406;2022-11-15T06:06:55;100199.75;;;10.54;95.01
6349;BME280;3207;42.648;23.406;2022-11-15T06:09:21;100203.31;;;10.53;94.48
6349;BME280;3207;42.648;23.406;2022-11-15T06:11:48;100202.38;;;10.54;95.00
6349;BME280;3207;42.648;23.406;2022-11-15T06:14:15;100212.09;;;10.52;94.63
6349;BME280;3207;42.648;23.406;2022-11-15T06:16:42;100208.66;;;10.51;94.67
6349;BME280;3207;42.648;23.406;2022-11-15T06:19:10;100212.94;;;10.52;95.30
6349;BME280;3207;42.648;23.406;2022-11-15T06:21:37;100143.13;;;10.16;94.35
6349;BME280;3207;42.648;23.406;2022-11-15T06:24:04;100208.03;;;10.48;94.83
6349;BME280;3207;42.648;23.406;2022-11-15T06:26:31;100207.19;;;10.47;95.04
6349;BME280;3207;42.648;23.406;2022-11-15T06:28:58;100205.28;;;10.49;94.66
6349;BME280;3207;42.648;23.406;2022-11-15T06:31:25;100209.69;;;10.49;94.22
6349;BME280;3207;42.648;23.406;2022-11-15T06:33:52;100213.28;;;10.48;95.53
6349;BME280;3207;42.648;23.406;2022-11-15T06:36:20;100204.47;;;10.49;94.83
6349;BME280;3207;42.648;23.406;2022-11-15T06:38:47;100207.72;;;10.52;94.82
6349;BME280;3207;42.648;23.406;2022-11-15T06:41:14;100203.09;;;10.56;94.61
6349;BME280;3207;42.648;23.406;2022-11-15T06:43:42;100201.00;;;10.61;94.91
6349;BME280;3207;42.648;23.406;2022-11-15T06:46:09;100205.09;;;10.65;95.02
6349;BME280;3207;42.648;23.406;2022-11-15T06:48:35;100212.63;;;10.70;95.66
6349;BME280;3207;42.648;23.406;2022-11-15T06:51:04;100217.72;;;10.71;95.08
6349;BME280;3207;42.648;23.406;2022-11-15T06:53:32;100214.78;;;10.76;94.55
6349;BME280;3207;42.648;23.406;2022-11-15T06:55:59;100213.84;;;10.77;94.01
6349;BME280;3207;42.648;23.406;2022-11-15T06:58:27;100216.38;;;10.78;93.82
6349;BME280;3207;42.648;23.406;2022-11-15T07:00:58;100218.34;;;10.75;93.53
6349;BME280;3207;42.648;23.406;2022-11-15T07:03:25;100205.81;;;10.67;93.80
6349;BME280;3207;42.648;23.406;2022-11-15T07:05:53;100209.75;;;10.73;93.84
6349;BME280;3207;42.648;23.406;2022-11-15T07:08:20;100211.22;;;10.77;94.15
6349;BME280;3207;42.648;23.406;2022-11-15T07:10:49;100209.84;;;10.84;94.53
6349;BME280;3207;42.648;23.406;2022-11-15T07:13:16;100209.44;;;10.90;94.16
6349;BME280;3207;42.648;23.406;2022-11-15T07:15:42;100211.31;;;10.88;94.35
6349;BME280;3207;42.648;23.406;2022-11-15T07:18:09;100209.28;;;10.91;94.10
6349;BME280;3207;42.648;23.406;2022-11-15T07:20:36;100209.28;;;10.91;94.13
6349;BME280;3207;42.648;23.406;2022-11-15T07:23:04;100204.81;;;10.93;94.07
6349;BME280;3207;42.648;23.406;2022-11-15T07:25:31;100190.72;;;10.83;93.90
6349;BME280;3207;42.648;23.406;2022-11-15T07:28:00;100198.41;;;10.97;93.63
6349;BME280;3207;42.648;23.406;2022-11-15T07:30:27;100213.66;;;11.04;94.11
6349;BME280;3207;42.648;23.406;2022-11-15T07:32:54;100215.13;;;11.08;93.34
6349;BME280;3207;42.648;23.406;2022-11-15T07:35:21;100215.13;;;11.08;93.31
6349;BME280;3207;42.648;23.406;2022-11-15T07:37:55;100208.94;;;11.09;93.35
6349;BME280;3207;42.648;23.406;2022-11-15T07:40:23;100212.19;;;11.12;93.35
6349;BME280;3207;42.648;23.406;2022-11-15T07:42:50;100212.78;;;11.16;93.71
6349;BME280;3207;42.648;23.406;2022-11-15T07:45:23;100209.03;;;11.20;93.81
6349;BME280;3207;42.648;23.406;2022-11-15T07:47:52;100212.38;;;11.22;92.78
6349;BME280;3207;42.648;23.406;2022-11-15T07:50:19;100213.78;;;11.26;93.54
6349;BME280;3207;42.648;23.406;2022-11-15T07:52:46;100215.47;;;11.27;93.56
6349;BME280;3207;42.648;23.406;2022-11-15T07:55:13;100201.91;;;11.22;92.97
6349;BME280;3207;42.648;23.406;2022-11-15T07:57:40;100199.28;;;11.22;93.22
6349;BME280;3207;42.648;23.406;2022-11-15T08:00:07;100191.44;;;11.22;92.62
6349;BME280;3207;42.648;23.406;2022-11-15T08:02:36;100197.59;;;11.21;92.20
6349;BME280;3207;42.648;23.406;2022-11-15T08:05:03;100194.25;;;11.19;93.05
6349;BME280;3207;42.648;23.406;2022-11-15T08:07:30;100189.03;;;11.19;93.03
6349;BME280;3207;42.648;23.406;2022-11-15T08:09:57;100189.13;;;11.17;92.55
6349;BME280;3207;42.648;23.406;2022-11-15T08:12:26;100183.41;;;11.12;93.51
6349;BME280;3207;42.648;23.406;2022-11-15T08:14:54;100194.09;;;11.09;92.41
6349;BME280;3207;42.648;23.406;2022-11-15T08:17:20;100198.50;;;11.09;92.96
6349;BME280;3207;42.648;23.406;2022-11-15T08:19:49;100191.13;;;11.14;94.00
6349;BME280;3207;42.648;23.406;2022-11-15T08:22:15;100207.34;;;11.19;94.08
6349;BME280;3207;42.648;23.406;2022-11-15T08:24:49;100194.88;;;11.22;92.93
6349;BME280;3207;42.648;23.406;2022-11-15T08:27:16;100187.16;;;11.21;93.54
6349;BME280;3207;42.648;23.406;2022-11-15T08:29:43;100172.38;;;11.20;93.81
6349;BME280;3207;42.648;23.406;2022-11-15T08:32:11;100187.41;;;11.29;94.30
6349;BME280;3207;42.648;23.406;2022-11-15T08:34:38;100186.00;;;11.36;94.42
6349;BME280;3207;42.648;23.406;2022-11-15T08:37:06;100189.63;;;11.46;93.72
6349;BME280;3207;42.648;23.406;2022-11-15T08:39:33;100187.31;;;11.54;93.97
6349;BME280;3207;42.648;23.406;2022-11-15T08:42:00;100183.50;;;11.58;93.03
6349;BME280;3207;42.648;23.406;2022-11-15T08:44:26;100181.59;;;11.60;92.28
6349;BME280;3207;42.648;23.406;2022-11-15T08:46:53;100186.63;;;11.63;92.30
6349;BME280;3207;42.648;23.406;2022-11-15T08:49:20;100183.31;;;11.72;92.10
6349;BME280;3207;42.648;23.406;2022-11-15T08:51:47;100191.47;;;11.81;92.67
6349;BME280;3207;42.648;23.406;2022-11-15T08:54:15;100191.50;;;11.92;92.47
6349;BME280;3207;42.648;23.406;2022-11-15T08:56:41;100196.75;;;12.03;91.82
6349;BME280;3207;42.648;23.406;2022-11-15T08:59:08;100192.69;;;12.10;91.39
6349;BME280;3207;42.648;23.406;2022-11-15T09:01:35;100180.00;;;12.17;91.89
6349;BME280;3207;42.648;23.406;2022-11-15T09:04:02;100195.22;;;12.23;91.58
6349;BME280;3207;42.648;23.406;2022-11-15T09:06:30;100185.59;;;12.23;91.31
6349;BME280;3207;42.648;23.406;2022-11-15T09:09:00;100181.19;;;12.24;91.06
6349;BME280;3207;42.648;23.406;2022-11-15T09:11:29;100172.72;;;12.31;91.33
6349;BME280;3207;42.648;23.406;2022-11-15T09:13:55;100172.25;;;12.37;90.99
6349;BME280;3207;42.648;23.406;2022-11-15T09:16:22;100166.75;;;12.40;90.59
6349;BME280;3207;42.648;23.406;2022-11-15T09:18:49;100167.59;;;12.41;90.55
6349;BME280;3207;42.648;23.406;2022-11-15T09:21:16;100165.91;;;12.40;90.06
6349;BME280;3207;42.648;23.406;2022-11-15T09:23:42;100167.97;;;12.36;89.95
6349;BME280;3207;42.648;23.406;2022-11-15T09:26:09;100177.72;;;12.34;90.54
6349;BME280;3207;42.648;23.406;2022-11-15T09:28:37;100177.13;;;12.31;90.01
6349;BME280;3207;42.648;23.406;2022-11-15T09:31:07;100178.22;;;12.28;90.03
6349;BME280;3207;42.648;23.406;2022-11-15T09:33:34;100174.03;;;12.26;90.24
6349;BME280;3207;42.648;23.406;2022-11-15T09:36:02;100181.41;;;12.21;90.34
6349;BME280;3207;42.648;23.406;2022-11-15T09:38:30;100168.31;;;12.21;90.09
6349;BME280;3207;42.648;23.406;2022-11-15T09:44:02;100166.91;;;12.28;91.07
6349;BME280;3207;42.648;23.406;2022-11-15T09:46:38;100171.53;;;12.35;90.62
6349;BME280;3207;42.648;23.406;2022-11-15T09:49:12;100167.03;;;12.37;90.98
6349;BME280;3207;42.648;23.406;2022-11-15T09:51:42;100172.72;;;12.42;91.01
6349;BME280;3207;42.648;23.406;2022-11-15T09:54:23;100166.41;;;12.45;90.95
6349;BME280;3207;42.648;23.406;2022-11-15T09:56:52;100164.41;;;12.49;90.51
6349;BME280;3207;42.648;23.406;2022-11-15T09:59:37;100145.31;;;12.46;90.39
6349;BME280;3207;42.648;23.406;2022-11-15T10:02:17;100144.09;;;12.51;90.33
6349;BME280;3207;42.648;23.406;2022-11-15T10:04:47;100134.34;;;12.53;90.55
6349;BME280;3207;42.648;23.406;2022-11-15T10:07:17;100107.44;;;12.39;90.51
6349;BME280;3207;42.648;23.406;2022-11-15T10:09:47;100121.94;;;12.55;90.54
6349;BME280;3207;42.648;23.406;2022-11-15T10:12:17;100125.06;;;12.60;90.63
6349;BME280;3207;42.648;23.406;2022-11-15T10:14:48;100124.91;;;12.61;91.12
6349;BME280;3207;42.648;23.406;2022-11-15T10:17:39;100122.88;;;12.65;90.91
6349;BME280;3207;42.648;23.406;2022-11-15T10:20:13;100120.75;;;12.70;90.81
6349;BME280;3207;42.648;23.406;2022-11-15T10:22:46;100118.69;;;12.73;91.13
6349;BME280;3207;42.648;23.406;2022-11-15T10:25:21;100116.56;;;12.78;90.45
6349;BME280;3207;42.648;23.406;2022-11-15T10:27:56;100104.25;;;12.90;90.14
6349;BME280;3207;42.648;23.406;2022-11-15T10:30:45;100101.59;;;13.01;89.45
6349;BME280;3207;42.648;23.406;2022-11-15T10:33:18;100101.78;;;13.09;89.10
6349;BME280;3207;42.648;23.406;2022-11-15T10:35:47;100097.97;;;13.13;89.05
6349;BME280;3207;42.648;23.406;2022-11-15T10:38:13;100090.56;;;13.18;88.57
6349;BME280;3207;42.648;23.406;2022-11-15T10:40:41;100087.56;;;13.23;88.00
6349;BME280;3207;42.648;23.406;2022-11-15T10:43:15;100081.09;;;13.27;87.82
6349;BME280;3207;42.648;23.406;2022-11-15T10:45:43;100071.19;;;13.31;87.46
6349;BME280;3207;42.648;23.406;2022-11-15T10:48:24;100067.00;;;13.28;87.22
6349;BME280;3207;42.648;23.406;2022-11-15T10:50:52;100061.16;;;13.25;86.95
6349;BME280;3207;42.648;23.406;2022-11-15T10:53:24;100054.53;;;13.21;86.80
6349;BME280;3207;42.648;23.406;2022-11-15T10:55:54;99948.66;;;12.58;86.53
6349;BME280;3207;42.648;23.406;2022-11-15T10:58:31;100045.81;;;13.20;86.53
6349;BME280;3207;42.648;23.406;2022-11-15T11:01:10;100049.97;;;13.23;86.51
6349;BME280;3207;42.648;23.406;2022-11-15T11:03:39;100050.94;;;13.22;86.55
6349;BME280;3207;42.648;23.406;2022-11-15T11:06:09;100046.88;;;13.17;86.28
6349;BME280;3207;42.648;23.406;2022-11-15T11:08:37;100043.81;;;13.12;86.56
6349;BME280;3207;42.648;23.406;2022-11-15T11:11:05;100044.28;;;13.06;86.41
6349;BME280;3207;42.648;23.406;2022-11-15T11:13:34;100033.47;;;13.00;86.40
6349;BME280;3207;42.648;23.406;2022-11-15T11:16:19;100029.53;;;12.94;86.59
6349;BME280;3207;42.648;23.406;2022-11-15T11:18:54;100016.22;;;12.86;86.55
6349;BME280;3207;42.648;23.406;2022-11-15T11:21:40;100031.72;;;12.89;86.83
6349;BME280;3207;42.648;23.406;2022-11-15T11:24:14;100002.44;;;12.73;87.29
6349;BME280;3207;42.648;23.406;2022-11-15T11:26:53;100025.06;;;12.85;87.42
6349;BME280;3207;42.648;23.406;2022-11-15T11:29:33;100010.28;;;12.84;87.67
6349;BME280;3207;42.648;23.406;2022-11-15T11:32:13;100003.94;;;12.87;87.66
6349;BME280;3207;42.648;23.406;2022-11-15T11:34:55;99999.41;;;12.89;88.19
6349;BME280;3207;42.648;23.406;2022-11-15T11:37:29;99994.59;;;12.94;87.84
6349;BME280;3207;42.648;23.406;2022-11-15T11:40:12;99990.53;;;13.01;87.76
6349;BME280;3207;42.648;23.406;2022-11-15T11:42:44;99990.00;;;13.07;87.57
6349;BME280;3207;42.648;23.406;2022-11-15T11:45:22;99986.06;;;13.12;87.43
6349;BME280;3207;42.648;23.406;2022-11-15T11:48:13;99978.16;;;13.24;87.33
6349;BME280;3207;42.648;23.406;2022-11-15T11:50:41;99980.00;;;13.33;86.89
6349;BME280;3207;42.648;23.406;2022-11-15T11:53:12;99981.84;;;13.42;86.60
6349;BME280;3207;42.648;23.406;2022-11-15T11:55:43;99975.53;;;13.54;86.65
6349;BME280;3207;42.648;23.406;2022-11-15T11:58:15;99963.72;;;13.69;86.10
6349;BME280;3207;42.648;23.406;2022-11-15T12:00:49;99962.66;;;13.81;85.45
6349;BME280;3207;42.648;23.406;2022-11-15T12:03:25;99952.84;;;13.83;85.01
6349;BME280;3207;42.648;23.406;2022-11-15T12:05:57;99963.50;;;13.91;84.72
6349;BME280;3207;42.648;23.406;2022-11-15T12:08:33;99955.38;;;13.95;84.35
6349;BME280;3207;42.648;23.406;2022-11-15T12:11:09;99948.06;;;13.98;84.29
6349;BME280;3207;42.648;23.406;2022-11-15T12:13:39;99945.44;;;14.08;83.99
6349;BME280;3207;42.648;23.406;2022-11-15T12:16:12;99934.81;;;14.19;83.84
6349;BME280;3207;42.648;23.406;2022-11-15T12:18:44;99933.41;;;14.24;83.12
6349;BME280;3207;42.648;23.406;2022-11-15T12:21:18;99925.94;;;14.20;81.69
6349;BME280;3207;42.648;23.406;2022-11-15T12:23:49;99921.50;;;14.11;81.94
6349;BME280;3207;42.648;23.406;2022-11-15T12:26:21;99914.88;;;14.07;82.43
6349;BME280;3207;42.648;23.406;2022-11-15T12:28:52;99906.41;;;14.03;82.75
6349;BME280;3207;42.648;23.406;2022-11-15T12:31:24;99915.97;;;14.14;82.42
6349;BME280;3207;42.648;23.406;2022-11-15T12:33:58;99906.84;;;14.18;82.91
6349;BME280;3207;42.648;23.406;2022-11-15T12:36:36;99909.38;;;14.29;83.02
6349;BME280;3207;42.648;23.406;2022-11-15T12:39:08;99908.97;;;14.43;83.03
6349;BME280;3207;42.648;23.406;2022-11-15T12:41:37;99910.09;;;14.60;83.38
6349;BME280;3207;42.648;23.406;2022-11-15T12:44:05;99910.63;;;14.83;84.26
6349;BME280;3207;42.648;23.406;2022-11-15T12:46:59;99903.75;;;15.09;83.19
6349;BME280;3207;42.648;23.406;2022-11-15T12:49:45;99905.81;;;15.25;81.89
6349;BME280;3207;42.648;23.406;2022-11-15T12:52:13;99894.41;;;15.34;81.68
6349;BME280;3207;42.648;23.406;2022-11-15T12:57:45;99886.66;;;15.60;79.69
6349;BME280;3207;42.648;23.406;2022-11-15T13:00:42;99886.81;;;15.86;78.82
6349;BME280;3207;42.648;23.406;2022-11-15T13:03:26;99882.78;;;16.09;78.34
6349;BME280;3207;42.648;23.406;2022-11-15T13:06:06;99881.56;;;16.21;77.27
6349;BME280;3207;42.648;23.406;2022-11-15T13:08:42;99874.25;;;16.15;76.67
6349;BME280;3207;42.648;23.406;2022-11-15T13:11:48;99831.53;;;15.76;75.94
6349;BME280;3207;42.648;23.406;2022-11-15T13:17:32;99862.94;;;15.87;75.78
6349;BME280;3207;42.648;23.406;2022-11-15T13:20:11;99864.59;;;15.88;76.64
6349;BME280;3207;42.648;23.406;2022-11-15T13:22:45;99861.28;;;15.86;76.87
6349;BME280;3207;42.648;23.406;2022-11-15T13:25:48;99856.31;;;15.83;76.46
6349;BME280;3207;42.648;23.406;2022-11-15T13:28:24;99850.66;;;15.78;76.58
6349;BME280;3207;42.648;23.406;2022-11-15T13:30:54;99844.00;;;15.74;76.20